Time;durP1;ratioP1;P1;durP2;ratioP2;P2;SDS_P1;SDS_P2;PMS_P1;PMS_P2;Temp;Humidity;BMP_temperature;BMP_pressure;BME280_temperature;BME280_humidity;BME280_pressure;Samples;Min_cycle;Max_cycle;Signal;HPM_P1;HPM_P2
2021/09/29 00:01:16;;;;;;;7.63;2.20;;;;;;;11.07;63.84;100137.94;10429639;28;20102;-65
2021/09/29 00:06:18;;;;;;;8.10;2.17;;;;;;;11.00;63.95;100131.38;10431340;28;20409;-65
2021/09/29 00:11:19;;;;;;;6.15;2.05;;;;;;;10.95;64.15;100143.03;10429837;28;20055;-65
2021/09/29 00:16:21;;;;;;;5.60;1.95;;;;;;;10.98;64.18;100141.09;10429384;28;20051;-65
2021/09/29 00:21:23;;;;;;;5.80;2.13;;;;;;;11.07;64.06;100132.72;10428507;28;20049;-64
2021/09/29 00:26:25;;;;;;;7.35;2.20;;;;;;;11.12;64.11;100122.84;10430364;28;20083;-64
2021/09/29 00:36:36;;;;;;;7.50;2.30;;;;;;;11.27;63.68;100121.91;10429865;28;20084;-65
2021/09/29 00:41:39;;;;;;;4.00;2.03;;;;;;;11.35;63.74;100112.75;10429470;28;20416;-64
2021/09/29 00:46:41;;;;;;;4.78;2.00;;;;;;;11.37;63.64;100109.13;10428021;28;20049;-64
2021/09/29 00:51:43;;;;;;;4.75;2.00;;;;;;;11.39;63.58;100098.56;10428814;28;20044;-65
2021/09/29 00:56:46;;;;;;;6.65;2.30;;;;;;;11.36;63.49;100101.38;10428477;28;20055;-64
2021/09/29 01:01:49;;;;;;;5.60;2.10;;;;;;;11.28;63.60;100086.09;10427067;28;20053;-64
2021/09/29 01:07:09;;;;;;;4.25;2.20;;;;;;;11.19;63.77;100084.88;10427911;28;20049;-66
2021/09/29 01:12:26;;;;;;;7.03;2.20;;;;;;;11.14;63.95;100076.47;10427328;28;20048;-65
2021/09/29 01:17:29;;;;;;;6.43;2.17;;;;;;;11.20;63.96;100072.63;10427335;28;20146;-65
2021/09/29 01:22:55;;;;;;;7.85;2.80;;;;;;;11.21;64.03;100069.09;10427139;28;20053;-65
2021/09/29 01:27:59;;;;;;;8.25;2.10;;;;;;;11.28;63.88;100068.63;10427151;28;20063;-65
2021/09/29 01:33:02;;;;;;;6.03;2.40;;;;;;;11.30;63.82;100066.75;10427469;28;20092;-65
2021/09/29 01:38:05;;;;;;;6.28;2.10;;;;;;;11.36;63.63;100062.09;10427084;28;20053;-64
2021/09/29 01:43:06;;;;;;;5.30;2.25;;;;;;;11.30;63.60;100056.28;10426463;28;20061;-64
2021/09/29 01:48:08;;;;;;;3.85;2.05;;;;;;;11.13;64.05;100059.06;10426626;28;20583;-65
2021/09/29 01:53:11;;;;;;;6.82;2.10;;;;;;;11.00;64.05;100042.41;10425734;28;20053;-65
2021/09/29 01:58:13;;;;;;;4.80;2.20;;;;;;;10.93;64.17;100051.53;10427469;28;20060;-65
2021/09/29 02:03:21;;;;;;;6.32;2.17;;;;;;;10.80;64.93;100050.59;10429831;28;20083;-65
2021/09/29 02:08:23;;;;;;;7.80;2.33;;;;;;;10.90;64.70;100032.56;10433593;28;20562;-64
2021/09/29 02:13:24;;;;;;;4.70;2.30;;;;;;;10.98;64.61;100032.94;10433625;28;20152;-65
2021/09/29 02:18:27;;;;;;;8.98;2.50;;;;;;;11.06;64.36;100042.06;10431227;28;20049;-64
2021/09/29 02:23:29;;;;;;;4.80;2.53;;;;;;;11.08;64.60;100037.56;10433492;28;20060;-64
2021/09/29 02:28:30;;;;;;;5.95;2.60;;;;;;;11.15;64.70;100043.28;10432992;28;20041;-64
2021/09/29 02:33:32;;;;;;;6.50;2.85;;;;;;;11.27;64.66;100039.94;10432869;28;20048;-64
2021/09/29 02:38:34;;;;;;;6.10;2.63;;;;;;;11.32;64.34;100043.94;10432627;28;20055;-64
2021/09/29 02:43:35;;;;;;;7.07;3.25;;;;;;;11.40;64.18;100037.41;10425650;28;20056;-64
2021/09/29 02:48:37;;;;;;;8.38;4.05;;;;;;;11.33;64.23;100047.41;10431989;28;20041;-65
2021/09/29 02:53:39;;;;;;;5.18;2.83;;;;;;;11.23;64.26;100035.81;10432490;28;20713;-64
2021/09/29 02:58:41;;;;;;;8.98;3.30;;;;;;;11.15;64.51;100033.63;10432356;28;20049;-64
2021/09/29 03:03:42;;;;;;;6.95;3.42;;;;;;;11.13;64.45;100042.53;10429534;28;20052;-65
2021/09/29 03:08:44;;;;;;;9.55;4.38;;;;;;;11.09;64.62;100041.03;10427752;28;20137;-64
2021/09/29 03:13:47;;;;;;;9.63;3.40;;;;;;;11.03;64.70;100039.56;10424991;28;20095;-65
2021/09/29 03:18:49;;;;;;;5.47;3.10;;;;;;;10.98;64.80;100041.66;10424260;28;20132;-64
2021/09/29 03:23:51;;;;;;;10.55;3.83;;;;;;;10.99;64.59;100032.84;10424799;28;20132;-64
2021/09/29 03:28:52;;;;;;;9.48;3.55;;;;;;;10.86;64.62;100026.69;10425052;28;20059;-64
2021/09/29 03:33:54;;;;;;;5.70;3.17;;;;;;;10.74;64.62;100026.56;10428790;28;20053;-64
2021/09/29 03:38:56;;;;;;;8.77;3.08;;;;;;;10.64;64.81;100026.25;10432493;28;20045;-65
2021/09/29 03:43:58;;;;;;;9.52;2.80;;;;;;;10.36;65.35;100026.16;10432108;28;20268;-65
2021/09/29 03:49:02;;;;;;;4.68;2.60;;;;;;;10.33;65.22;100031.56;10432371;28;20045;-65
2021/09/29 03:54:03;;;;;;;7.00;2.83;;;;;;;10.28;65.54;100018.75;10432175;28;20045;-64
2021/09/29 03:59:06;;;;;;;112.07;6.22;;;;;;;10.11;65.47;100018.03;10431143;28;20500;-64
2021/09/29 04:04:08;;;;;;;15.63;3.50;;;;;;;9.97;65.87;100015.34;10431188;28;20882;-64
2021/09/29 04:09:09;;;;;;;5.50;2.60;;;;;;;9.91;65.98;100024.34;10431430;28;20059;-65
2021/09/29 04:14:11;;;;;;;7.82;3.10;;;;;;;9.89;66.21;100014.94;10431448;28;20055;-64
2021/09/29 04:19:16;;;;;;;40.28;4.93;;;;;;;9.82;66.14;100026.63;10431308;28;20231;-65
2021/09/29 04:24:18;;;;;;;22.23;3.10;;;;;;;9.87;66.27;100035.09;10430562;28;20477;-65
2021/09/29 04:29:23;;;;;;;6.20;2.92;;;;;;;9.91;66.21;100039.22;10430263;28;20233;-64
2021/09/29 04:34:25;;;;;;;8.63;2.80;;;;;;;9.94;66.19;100034.66;10429579;28;20374;-65
2021/09/29 04:39:27;;;;;;;20.65;3.80;;;;;;;10.02;66.21;100037.69;10430655;28;20282;-65
2021/09/29 04:44:28;;;;;;;52.97;4.22;;;;;;;10.00;66.29;100028.22;10429121;28;20057;-65
2021/09/29 04:49:30;;;;;;;58.60;3.85;;;;;;;10.07;66.22;100024.38;10429078;28;20059;-65
2021/09/29 04:54:32;;;;;;;45.50;3.90;;;;;;;10.05;66.30;100037.53;10430225;28;20049;-65
2021/09/29 04:59:34;;;;;;;30.23;3.67;;;;;;;10.11;66.13;100036.31;10430709;28;20127;-65
2021/09/29 05:04:36;;;;;;;72.57;4.72;;;;;;;10.09;66.15;100027.72;10427773;28;20052;-65
2021/09/29 05:09:37;;;;;;;136.50;6.50;;;;;;;10.06;66.00;100028.75;10429443;28;20143;-64
2021/09/29 05:14:39;;;;;;;167.93;6.03;;;;;;;9.98;66.22;100030.94;10429838;28;20524;-65
2021/09/29 05:19:41;;;;;;;248.13;7.15;;;;;;;9.95;66.37;100043.34;10429089;28;20053;-66
2021/09/29 05:24:44;;;;;;;315.52;8.70;;;;;;;9.97;66.33;100036.25;10427287;28;20497;-66
2021/09/29 05:29:48;;;;;;;99.18;4.95;;;;;;;9.95;66.22;100033.69;10429664;28;20382;-66
2021/09/29 05:34:50;;;;;;;36.70;3.60;;;;;;;9.93;66.28;100032.94;10429001;28;20457;-65
2021/09/29 05:39:51;;;;;;;76.43;5.20;;;;;;;9.99;66.46;100040.44;10428209;28;20041;-65
2021/09/29 05:44:53;;;;;;;105.47;5.30;;;;;;;10.04;66.20;100038.44;10428210;28;20063;-65
2021/09/29 05:49:54;;;;;;;42.42;3.47;;;;;;;10.00;66.06;100028.22;10427618;28;20049;-65
2021/09/29 05:54:56;;;;;;;352.95;8.93;;;;;;;10.01;66.05;100035.16;10427859;28;20051;-65
2021/09/29 05:59:58;;;;;;;115.35;5.30;;;;;;;9.99;66.04;100037.00;10427792;28;20120;-65
2021/09/29 06:05:00;;;;;;;94.45;4.68;;;;;;;10.07;65.90;100034.81;10426628;28;20477;-65
2021/09/29 06:10:03;;;;;;;540.60;14.02;;;;;;;10.15;65.51;100027.38;10426500;28;20527;-65
2021/09/29 06:15:05;;;;;;;694.38;19.88;;;;;;;10.07;65.61;100014.75;10427920;28;20045;-65
2021/09/29 06:20:08;;;;;;;663.65;17.27;;;;;;;10.10;65.66;100013.72;10427354;28;20049;-65
2021/09/29 06:25:10;;;;;;;238.95;6.78;;;;;;;10.20;65.19;100020.09;10428025;28;20052;-65
2021/09/29 06:30:12;;;;;;;234.70;7.38;;;;;;;10.35;64.79;100029.69;10427153;28;20384;-65
2021/09/29 06:35:14;;;;;;;51.50;3.58;;;;;;;10.53;64.65;100015.56;10426988;28;20053;-66
2021/09/29 06:40:19;;;;;;;137.93;6.13;;;;;;;10.89;64.13;100020.44;10425467;28;20153;-65
2021/09/29 06:45:21;;;;;;;231.55;6.85;;;;;;;11.15;63.41;100011.88;10426727;28;20148;-66
2021/09/29 06:50:23;;;;;;;168.38;6.95;;;;;;;11.20;63.46;100018.50;10426533;28;20266;-66
2021/09/29 06:55:31;;;;;;;41.47;4.25;;;;;;;11.38;63.49;100018.34;10426076;28;20524;-66
2021/09/29 07:00:32;;;;;;;94.85;5.68;;;;;;;11.32;63.31;100012.53;10426660;28;20497;-65
2021/09/29 07:05:35;;;;;;;99.82;5.57;;;;;;;11.23;63.42;100009.63;10424649;28;20068;-66
2021/09/29 07:10:36;;;;;;;260.05;8.63;;;;;;;11.08;63.51;100000.94;10432644;28;20089;-65
2021/09/29 07:15:39;;;;;;;153.73;7.40;;;;;;;10.92;63.92;100005.38;10434196;28;20057;-65
2021/09/29 07:20:41;;;;;;;78.43;5.90;;;;;;;10.98;63.96;99999.78;10432043;28;20834;-65
2021/09/29 07:25:42;;;;;;;145.25;8.55;;;;;;;11.09;63.70;99996.53;10433563;28;20049;-65
2021/09/29 07:30:45;;;;;;;72.13;6.72;;;;;;;11.13;63.92;99988.38;10434239;28;20045;-65
2021/09/29 07:35:47;;;;;;;9.77;4.40;;;;;;;11.30;63.58;99990.81;10434077;28;20140;-65
2021/09/29 07:40:49;;;;;;;11.43;4.70;;;;;;;11.61;63.31;99974.03;10433559;28;20202;-65
2021/09/29 07:45:51;;;;;;;19.25;5.00;;;;;;;11.86;62.54;99989.03;10431698;28;20049;-65
2021/09/29 07:50:54;;;;;;;9.20;5.10;;;;;;;12.09;62.20;99983.16;10432608;28;20049;-65
2021/09/29 07:55:56;;;;;;;9.60;5.63;;;;;;;12.17;62.17;99993.16;10433168;28;20583;-65
2021/09/29 08:00:58;;;;;;;8.68;5.57;;;;;;;12.07;62.28;100000.75;10432771;28;20142;-72
2021/09/29 08:06:03;;;;;;;10.02;6.60;;;;;;;12.01;62.30;99993.28;10432504;28;20148;-72
2021/09/29 08:11:05;;;;;;;10.52;5.90;;;;;;;12.11;62.17;99989.97;10430461;28;20063;-72
2021/09/29 08:16:07;;;;;;;11.90;5.47;;;;;;;11.92;62.38;99989.50;10430314;28;20049;-72
2021/09/29 08:21:14;;;;;;;14.75;5.05;;;;;;;11.95;62.38;99991.06;10420543;28;20215;-72
2021/09/29 08:37:20;;;;;;;9.38;5.82;;;;;;;12.11;62.98;99969.00;10425158;28;20308;-72
2021/09/29 08:47:34;;;;;;;13.88;6.55;;;;;;;12.39;62.67;99962.81;10425908;28;20338;-73
2021/09/29 09:18:58;;;;;;;13.77;7.63;;;;;;;14.00;61.27;99942.66;10425462;28;20049;-76
2021/09/29 09:23:59;;;;;;;13.50;8.45;;;;;;;14.50;61.13;99937.09;10424762;28;20045;-75
2021/09/29 09:29:04;;;;;;;13.02;7.18;;;;;;;15.30;59.89;99927.34;10425421;28;20068;-76
2021/09/29 09:34:08;;;;;;;12.30;7.38;;;;;;;15.52;58.48;99923.84;10420341;28;20517;-76
2021/09/29 09:39:19;;;;;;;12.65;6.00;;;;;;;15.25;58.79;99929.50;10426999;28;20053;-76
2021/09/29 09:44:33;;;;;;;9.55;4.90;;;;;;;15.49;59.19;99910.91;10422784;28;20057;-77
2021/09/29 09:49:52;;;;;;;11.38;4.80;;;;;;;15.34;59.80;99912.97;10421953;28;20380;-76
2021/09/29 09:55:01;;;;;;;6.53;2.53;;;;;;;15.25;58.90;99903.13;10427200;28;20138;-76
2021/09/29 10:00:06;;;;;;;9.02;2.30;;;;;;;15.76;57.71;99898.13;10425562;28;20575;-77
2021/09/29 10:05:10;;;;;;;4.78;2.10;;;;;;;16.00;57.15;99891.69;10426143;28;20065;-76
2021/09/29 10:10:36;;;;;;;4.85;2.08;;;;;;;16.34;55.87;99894.16;10422613;28;20053;-76
2021/09/29 10:26:39;;;;;;;6.50;2.00;;;;;;;17.28;52.68;99879.75;10419219;28;20052;-75
2021/09/29 10:32:08;;;;;;;5.78;1.90;;;;;;;17.12;52.91;99860.13;10423918;28;20075;-74
2021/09/29 10:42:26;;;;;;;7.70;2.75;;;;;;;17.82;51.31;99844.94;10423389;28;20726;-76
2021/09/29 10:47:49;;;;;;;7.85;2.05;;;;;;;17.86;50.54;99846.31;10424189;28;20056;-75
2021/09/29 11:30:10;;;;;;;4.20;1.10;;;;;;;14.35;59.34;99932.13;10423020;28;20560;-76
2021/09/29 12:13:04;;;;;;;3.20;0.98;;;;;;;16.27;57.50;99941.34;10427179;28;19924;-75
2021/09/29 12:18:11;;;;;;;2.85;0.90;;;;;;;16.31;58.03;99947.19;10431206;28;20057;-75
2021/09/29 12:23:12;;;;;;;1.65;0.82;;;;;;;16.80;57.14;99960.63;10428843;28;20049;-76
2021/09/29 12:38:58;;;;;;;1.08;0.73;;;;;;;17.06;55.01;99993.59;10429123;28;20098;-77
2021/09/29 12:44:02;;;;;;;1.23;0.75;;;;;;;17.39;53.12;99985.44;10428966;28;20291;-76
2021/09/29 12:49:11;;;;;;;1.80;0.63;;;;;;;17.13;52.92;99993.91;10429911;28;20045;-77
2021/09/29 12:54:20;;;;;;;1.15;0.60;;;;;;;16.79;53.13;100007.34;10427801;28;20053;-76
2021/09/29 12:59:22;;;;;;;1.45;0.75;;;;;;;16.94;52.97;99999.91;10428822;28;20044;-75
2021/09/29 13:04:25;;;;;;;2.60;0.90;;;;;;;16.60;53.43;100001.94;10425914;28;20041;-75
2021/09/29 13:09:26;;;;;;;0.77;0.60;;;;;;;16.54;52.09;99998.97;10427029;28;20061;-75
2021/09/29 13:14:28;;;;;;;1.17;0.80;;;;;;;16.53;52.79;100007.88;10428506;28;20049;-77
2021/09/29 13:19:54;;;;;;;2.10;0.70;;;;;;;16.19;52.53;100012.38;10428051;28;20049;-78
2021/09/29 13:40:59;;;;;;;2.40;0.77;;;;;;;16.72;49.27;100060.81;10427628;28;20057;-78
2021/09/29 13:46:01;;;;;;;0.70;0.70;;;;;;;16.30;50.66;100077.50;10318042;28;20053;-78
2021/09/29 13:51:04;;;;;;;5.15;0.93;;;;;;;16.23;51.02;100088.56;10305600;28;20054;-78
2021/09/29 13:56:08;;;;;;;0.73;0.60;;;;;;;15.91;51.25;100090.28;10320163;28;20060;-77
2021/09/29 14:33:26;;;;;;;1.33;0.80;;;;;;;14.84;53.20;100121.50;10301273;28;20050;-78
2021/09/29 14:38:27;;;;;;;1.10;0.90;;;;;;;14.75;53.13;100127.41;10303519;28;20575;-77
2021/09/29 14:43:30;;;;;;;1.77;0.90;;;;;;;14.88;52.99;100131.66;10303083;28;20343;-77
2021/09/29 14:48:32;;;;;;;1.92;0.90;;;;;;;14.62;52.58;100140.63;10301939;28;20073;-77
2021/09/29 14:53:37;;;;;;;1.25;0.90;;;;;;;14.42;53.42;100139.44;10301545;28;20046;-76
2021/09/29 14:58:39;;;;;;;4.60;1.00;;;;;;;14.39;53.85;100149.34;10301894;28;20152;-76
2021/09/29 15:03:43;;;;;;;2.00;1.00;;;;;;;14.67;52.46;100149.06;10300211;28;20050;-78
2021/09/29 15:08:45;;;;;;;2.58;0.98;;;;;;;14.76;52.28;100166.78;10296419;28;20058;-77
2021/09/29 15:19:38;;;;;;;2.70;1.10;;;;;;;15.05;51.34;100176.03;10205796;28;20050;-76
2021/09/29 15:24:52;;;;;;;2.35;0.90;;;;;;;15.10;50.42;100179.16;10296980;28;20491;-76
2021/09/29 15:56:20;;;;;;;6.15;1.10;;;;;;;15.18;45.49;100231.28;10304448;28;20503;-77
2021/09/29 16:01:31;;;;;;;4.20;1.00;;;;;;;15.41;44.64;100236.53;10305522;28;20046;-76
2021/09/29 16:33:07;;;;;;;2.72;1.20;;;;;;;13.86;49.21;100302.16;10302416;28;20056;-77
2021/09/29 16:38:09;;;;;;;3.80;1.38;;;;;;;13.53;50.01;100321.00;10300083;28;20630;-77
2021/09/29 16:43:11;;;;;;;7.30;1.42;;;;;;;13.31;50.63;100332.03;10303751;28;20478;-77
2021/09/29 16:48:16;;;;;;;9.02;1.60;;;;;;;13.25;51.45;100348.16;10304357;28;20060;-76
2021/09/29 16:53:18;;;;;;;5.20;1.45;;;;;;;13.26;51.47;100356.91;10304711;28;20042;-78
2021/09/29 16:58:43;;;;;;;5.28;1.50;;;;;;;13.20;52.03;100371.28;10305132;28;20137;-76
2021/09/29 17:03:46;;;;;;;3.95;1.63;;;;;;;13.11;50.83;100361.34;10301929;28;20054;-77
2021/09/29 17:08:47;;;;;;;4.50;1.30;;;;;;;13.09;51.24;100359.78;10304934;28;20058;-76
2021/09/29 17:13:49;;;;;;;2.65;1.20;;;;;;;12.95;51.88;100382.47;10301287;28;20047;-76
2021/09/29 17:18:52;;;;;;;7.28;1.30;;;;;;;12.89;52.25;100413.50;10300250;28;20046;-76
2021/09/29 17:23:55;;;;;;;5.38;1.40;;;;;;;12.62;53.58;100402.91;10292193;28;20054;-78
2021/09/29 17:28:59;;;;;;;3.65;1.40;;;;;;;12.36;55.38;100415.91;10304700;28;20748;-79
2021/09/29 17:39:27;;;;;;;2.33;1.20;;;;;;;12.04;56.92;100439.59;10302827;28;20344;-79
2021/09/29 17:55:11;;;;;;;3.00;1.23;;;;;;;11.34;59.07;100443.66;10298335;28;20069;-78
2021/09/29 18:00:14;;;;;;;3.85;1.38;;;;;;;11.06;59.35;100447.75;10297515;28;20046;-78
2021/09/29 18:05:31;;;;;;;5.25;1.45;;;;;;;10.94;60.25;100464.06;10300319;28;20411;-78
2021/09/29 18:10:33;;;;;;;5.18;1.40;;;;;;;10.84;60.17;100483.81;10299685;28;20054;-79
2021/09/29 18:15:35;;;;;;;4.93;2.40;;;;;;;10.70;60.21;100486.28;10302369;28;20073;-78
2021/09/29 18:20:37;;;;;;;3.30;1.90;;;;;;;10.62;60.46;100493.69;10304434;28;20042;-78
2021/09/29 18:25:40;;;;;;;4.45;1.55;;;;;;;10.53;59.97;100499.38;10301921;28;20515;-79
2021/09/29 18:30:44;;;;;;;5.85;2.20;;;;;;;10.38;60.29;100502.75;10303558;28;20058;-78
2021/09/29 18:35:49;;;;;;;4.57;1.83;;;;;;;10.38;60.54;100516.66;10298056;28;20412;-78
2021/09/29 18:40:51;;;;;;;5.90;2.10;;;;;;;10.30;60.29;100517.97;10303762;28;20061;-79
2021/09/29 18:45:53;;;;;;;6.55;3.30;;;;;;;10.25;60.76;100519.97;10303894;28;20058;-68
2021/09/29 18:50:57;;;;;;;8.30;3.92;;;;;;;10.20;60.80;100524.56;10301752;28;20060;-68
2021/09/29 18:56:12;;;;;;;5.03;2.22;;;;;;;10.08;61.00;100527.78;10302121;28;20073;-68
2021/09/29 19:11:58;;;;;;;3.37;1.50;;;;;;;9.86;60.98;100555.84;10310516;28;20069;-69
2021/09/29 19:16:59;;;;;;;2.05;1.10;;;;;;;9.82;60.80;100560.38;10311017;28;20076;-69
2021/09/29 19:22:02;;;;;;;4.43;1.45;;;;;;;9.85;60.72;100573.28;10309394;28;20050;-69
2021/09/29 19:27:05;;;;;;;3.35;1.40;;;;;;;9.86;60.42;100576.75;10310291;28;20145;-69
2021/09/29 19:32:07;;;;;;;4.15;1.40;;;;;;;9.84;60.13;100583.81;10310677;28;20180;-69
2021/09/29 19:37:09;;;;;;;6.43;1.50;;;;;;;9.88;60.69;100593.19;10310605;28;20050;-69
2021/09/29 19:42:11;;;;;;;2.85;1.42;;;;;;;9.87;60.98;100588.91;10326105;28;20056;-70
2021/09/29 19:47:42;;;;;;;2.92;1.42;;;;;;;9.79;61.17;100598.84;10308245;28;20054;-69
2021/09/29 19:53:05;;;;;;;3.13;1.40;;;;;;;9.70;61.19;100612.31;10309140;28;20043;-70
2021/09/29 20:08:37;;;;;;;;;;;;;;;9.39;61.47;100634.56;10308542;28;20062;-69
2021/09/29 20:13:41;;;;;;;3.90;1.30;;;;;;;9.57;60.58;100641.56;10321811;28;20400;-69
2021/09/29 20:18:47;;;;;;;3.75;1.30;;;;;;;9.62;60.40;100650.06;10308213;28;20133;-70
2021/09/29 20:23:49;;;;;;;4.88;1.50;;;;;;;9.60;60.79;100659.72;10309018;28;20065;-69
2021/09/29 20:28:51;;;;;;;3.08;1.60;;;;;;;9.60;60.53;100664.94;10321841;28;20054;-70
2021/09/29 20:44:17;;;;;;;4.27;1.50;;;;;;;9.70;60.19;100675.00;10308081;28;20053;-70
2021/09/29 20:49:19;;;;;;;3.28;1.40;;;;;;;9.66;60.17;100663.84;10306506;28;20405;-70
2021/09/29 20:54:21;;;;;;;2.88;1.30;;;;;;;9.65;60.49;100681.25;10307504;28;20046;-70
2021/09/29 20:59:23;;;;;;;4.63;1.50;;;;;;;9.61;60.28;100679.69;10307633;28;20050;-70
2021/09/29 21:04:25;;;;;;;4.28;1.40;;;;;;;9.62;60.50;100675.31;10305811;28;20537;-70
2021/09/29 21:09:28;;;;;;;3.00;1.27;;;;;;;9.56;60.27;100680.81;10306940;28;20069;-69
2021/09/29 21:19:50;;;;;;;4.13;1.67;;;;;;;9.37;60.94;100687.72;10306437;28;20047;-70
2021/09/29 21:24:52;;;;;;;2.90;1.30;;;;;;;9.28;61.12;100698.59;10306430;28;21015;-69
2021/09/29 21:29:55;;;;;;;2.95;1.40;;;;;;;9.24;61.21;100697.84;10320570;28;20058;-68
2021/09/29 21:35:00;;;;;;;3.63;1.48;;;;;;;9.22;61.28;100701.47;10305598;28;20188;-68
2021/09/29 21:40:27;;;;;;;2.22;1.17;;;;;;;9.18;61.28;100707.72;10306073;28;20518;-69
2021/09/29 21:45:44;;;;;;;2.47;1.27;;;;;;;9.17;61.60;100708.63;10305249;28;20078;-69
2021/09/29 22:17:52;;;;;;;4.25;1.40;;;;;;;9.00;61.91;100727.56;10302273;28;20589;-69
2021/09/29 22:33:33;;;;;;;3.50;1.30;;;;;;;8.91;61.84;100738.38;10303254;28;20069;-69
2021/09/29 22:55:22;;;;;;;3.83;1.40;;;;;;;8.89;61.95;100740.22;10300437;28;20051;-68
2021/09/29 23:10:29;;;;;;;4.85;1.20;;;;;;;8.87;61.80;100757.69;10302015;28;20085;-68
2021/09/29 23:37:05;;;;;;;3.37;1.37;;;;;;;8.75;62.19;100784.25;10301849;28;20562;-68
2021/09/29 23:42:07;;;;;;;4.28;1.40;;;;;;;8.73;62.19;100792.09;10302242;28;20426;-68
2021/09/29 23:47:09;;;;;;;3.22;1.25;;;;;;;8.74;62.14;100788.59;10301307;28;20054;-69
2021/09/29 23:52:10;;;;;;;4.88;1.60;;;;;;;8.71;62.34;100793.06;10305681;28;20046;-68
2021/09/29 23:57:12;;;;;;;4.25;1.20;;;;;;;8.69;62.47;100797.50;10308629;28;20407;-68
